Time;durP1;ratioP1;P1;durP2;ratioP2;P2;SDS_P1;SDS_P2;PMS_P1;PMS_P2;Temp;Humidity;BMP_temperature;BMP_pressure;BME280_temperature;BME280_humidity;BME280_pressure;Samples;Min_cycle;Max_cycle;Signal;HPM_P1;HPM_P2
2023/09/19 00:01:40;;;;;;;10.18;3.00;;;;;;;;;;5092108;28;20051;-64
2023/09/19 00:04:09;;;;;;;9.70;2.67;;;;;;;;;;5092054;28;20040;-67
2023/09/19 00:06:36;;;;;;;11.98;3.58;;;;;;;;;;5091329;28;20380;-69
2023/09/19 00:09:03;;;;;;;6.07;2.38;;;;;;;;;;5091634;28;20494;-68
2023/09/19 00:11:30;;;;;;;5.80;2.97;;;;;;;;;;5091630;28;20054;-65
2023/09/19 00:13:59;;;;;;;10.18;3.25;;;;;;;;;;5091550;28;20571;-67
2023/09/19 00:16:26;;;;;;;9.40;2.40;;;;;;;;;;5091474;28;20044;-69
2023/09/19 00:18:53;;;;;;;6.60;2.78;;;;;;;;;;5091785;28;20067;-68
2023/09/19 00:21:20;;;;;;;5.32;2.50;;;;;;;;;;5091307;28;20101;-67
2023/09/19 00:23:46;;;;;;;10.05;3.00;;;;;;;;;;5092030;28;20661;-69
2023/09/19 00:26:13;;;;;;;7.25;2.88;;;;;;;;;;5090946;28;20097;-69
2023/09/19 00:28:39;;;;;;;10.90;2.78;;;;;;;;;;5091734;28;20340;-69
2023/09/19 00:31:08;;;;;;;5.43;2.95;;;;;;;;;;5090845;28;20047;-68
2023/09/19 00:33:35;;;;;;;6.57;3.47;;;;;;;;;;5091461;28;20044;-70
2023/09/19 00:36:04;;;;;;;8.00;3.55;;;;;;;;;;5089552;28;20135;-70
2023/09/19 00:38:31;;;;;;;6.60;2.72;;;;;;;;;;5091002;28;20080;-69
2023/09/19 00:41:01;;;;;;;6.65;2.30;;;;;;;;;;5090857;28;20075;-68
2023/09/19 00:43:27;;;;;;;9.35;2.33;;;;;;;;;;5091359;28;20230;-69
2023/09/19 00:45:55;;;;;;;5.40;2.70;;;;;;;;;;5090678;28;20040;-69
2023/09/19 00:48:22;;;;;;;5.68;2.90;;;;;;;;;;5090899;28;20534;-69
2023/09/19 00:50:49;;;;;;;8.80;2.40;;;;;;;;;;5090708;28;20055;-69
2023/09/19 00:53:18;;;;;;;6.85;2.33;;;;;;;;;;5090639;28;20082;-68
2023/09/19 00:55:46;;;;;;;4.43;1.90;;;;;;;;;;5090686;28;20071;-69
2023/09/19 00:58:13;;;;;;;3.85;2.30;;;;;;;;;;5085847;28;20040;-69
2023/09/19 01:00:40;;;;;;;5.65;1.92;;;;;;;;;;5078026;28;20059;-70
2023/09/19 01:03:07;;;;;;;8.10;2.20;;;;;;;;;;5090512;28;20127;-69
2023/09/19 01:05:34;;;;;;;3.00;1.65;;;;;;;;;;5090584;28;20531;-71
2023/09/19 01:08:00;;;;;;;7.32;2.15;;;;;;;;;;5090640;28;20040;-69
2023/09/19 01:10:27;;;;;;;6.80;2.00;;;;;;;;;;5090611;28;20059;-69
2023/09/19 01:12:57;;;;;;;7.07;2.25;;;;;;;;;;5090144;28;20048;-70
2023/09/19 01:15:46;;;;;;;3.92;1.90;;;;;;;;;;5088986;28;20448;-69
2023/09/19 01:18:15;;;;;;;10.13;2.60;;;;;;;;;;5090576;28;20151;-70
2023/09/19 01:20:41;;;;;;;7.75;2.00;;;;;;;;;;5089867;28;20672;-69
2023/09/19 01:23:14;;;;;;;5.90;2.38;;;;;;;;;;5090619;28;20064;-70
2023/09/19 01:26:13;;;;;;;8.35;2.28;;;;;;;;;;5090193;28;20096;-70
2023/09/19 01:28:54;;;;;;;5.60;1.80;;;;;;;;;;5077578;28;20159;-68
2023/09/19 01:31:23;;;;;;;4.15;1.77;;;;;;;;;;5089826;28;20038;-68
2023/09/19 01:33:55;;;;;;;7.78;2.42;;;;;;;;;;5090133;28;20036;-69
2023/09/19 01:36:23;;;;;;;2.55;2.05;;;;;;;;;;5088725;28;20040;-69
2023/09/19 01:38:50;;;;;;;5.75;1.80;;;;;;;;;;5088684;28;20048;-69
2023/09/19 01:41:19;;;;;;;4.68;2.22;;;;;;;;;;5089315;28;20040;-69
2023/09/19 01:43:46;;;;;;;4.85;1.65;;;;;;;;;;5089940;28;20044;-69
2023/09/19 01:46:16;;;;;;;7.18;2.42;;;;;;;;;;5089170;28;20044;-69
2023/09/19 01:48:58;;;;;;;9.38;2.05;;;;;;;;;;5089568;28;20039;-72
2023/09/19 01:51:46;;;;;;;6.10;1.63;;;;;;;;;;5089633;28;20768;-69
2023/09/19 01:54:16;;;;;;;9.05;1.80;;;;;;;;;;5086058;28;20127;-68
2023/09/19 01:56:48;;;;;;;2.67;1.55;;;;;;;;;;5089319;28;20073;-68
2023/09/19 01:59:21;;;;;;;5.15;1.73;;;;;;;;;;5089499;28;20112;-70
2023/09/19 02:01:48;;;;;;;5.65;1.75;;;;;;;;;;5089224;28;20483;-69
2023/09/19 02:04:14;;;;;;;7.25;2.05;;;;;;;;;;5089649;28;20090;-69
2023/09/19 02:06:42;;;;;;;6.68;1.92;;;;;;;;;;5089101;28;20047;-70
2023/09/19 02:09:09;;;;;;;3.70;1.45;;;;;;;;;;5089549;28;20047;-69
2023/09/19 02:11:36;;;;;;;4.53;2.10;;;;;;;;;;5088969;28;20068;-70
2023/09/19 02:14:04;;;;;;;8.05;2.67;;;;;;;;;;5089708;28;20050;-69
2023/09/19 02:16:30;;;;;;;7.57;2.10;;;;;;;;;;5089241;28;20055;-69
2023/09/19 02:18:59;;;;;;;2.33;1.45;;;;;;;;;;5089547;28;20051;-68
2023/09/19 02:21:29;;;;;;;3.40;1.80;;;;;;;;;;5089348;28;20052;-69
2023/09/19 02:23:56;;;;;;;6.05;2.28;;;;;;;;;;5089554;28;20447;-69
2023/09/19 02:26:26;;;;;;;2.63;1.40;;;;;;;;;;5089356;28;20036;-68
2023/09/19 02:28:53;;;;;;;5.28;2.05;;;;;;;;;;5089353;28;20120;-69
2023/09/19 02:31:19;;;;;;;6.45;2.10;;;;;;;;;;5089483;28;20054;-67
2023/09/19 02:33:46;;;;;;;4.97;1.73;;;;;;;;;;5089383;28;20057;-70
2023/09/19 02:36:16;;;;;;;3.95;1.80;;;;;;;;;;5089218;28;20068;-68
2023/09/19 02:38:44;;;;;;;4.18;1.90;;;;;;;;;;5089009;28;20044;-70
2023/09/19 02:41:10;;;;;;;4.70;2.03;;;;;;;;;;5088615;28;20071;-69
2023/09/19 02:43:37;;;;;;;7.95;2.55;;;;;;;;;;5087827;28;20068;-67
2023/09/19 02:46:03;;;;;;;8.82;1.80;;;;;;;;;;5089153;28;20040;-67
2023/09/19 02:48:31;;;;;;;4.13;1.60;;;;;;;;;;5089017;28;20043;-68
2023/09/19 02:50:58;;;;;;;5.00;1.92;;;;;;;;;;5088682;28;20492;-69
2023/09/19 02:53:24;;;;;;;3.63;1.83;;;;;;;;;;5089422;28;20128;-68
2023/09/19 02:55:54;;;;;;;4.18;2.03;;;;;;;;;;5088929;28;20128;-67
2023/09/19 02:58:20;;;;;;;8.35;2.53;;;;;;;;;;5089203;28;20036;-67
2023/09/19 03:00:47;;;;;;;6.10;1.95;;;;;;;;;;5092960;28;20078;-68
2023/09/19 03:03:15;;;;;;;2.83;1.38;;;;;;;;;;5092934;28;20707;-68
2023/09/19 03:05:46;;;;;;;4.15;1.70;;;;;;;;;;5092814;28;20040;-67
2023/09/19 03:08:17;;;;;;;8.02;2.78;;;;;;;;;;5093087;28;20561;-67
2023/09/19 03:10:46;;;;;;;3.28;1.35;;;;;;;;;;5092513;28;20472;-67
2023/09/19 03:13:12;;;;;;;5.63;2.53;;;;;;;;;;5092694;28;20040;-67
2023/09/19 03:15:47;;;;;;;4.05;1.40;;;;;;;;;;5093515;28;20523;-66
2023/09/19 03:18:14;;;;;;;4.22;1.30;;;;;;;;;;5092989;28;20052;-68
2023/09/19 03:20:40;;;;;;;4.03;1.58;;;;;;;;;;5092626;28;20480;-67
2023/09/19 03:23:07;;;;;;;9.23;1.42;;;;;;;;;;5092973;28;20115;-70
2023/09/19 03:25:34;;;;;;;2.88;1.45;;;;;;;;;;5092908;28;20079;-69
2023/09/19 03:28:03;;;;;;;6.28;1.58;;;;;;;;;;5092755;28;20070;-69
2023/09/19 03:30:29;;;;;;;2.67;1.27;;;;;;;;;;5092880;28;20040;-70
2023/09/19 03:32:56;;;;;;;3.17;1.40;;;;;;;;;;5092463;28;20086;-71
2023/09/19 03:35:22;;;;;;;3.90;1.33;;;;;;;;;;5092537;28;20044;-70
2023/09/19 03:37:49;;;;;;;3.38;1.40;;;;;;;;;;5092454;28;20071;-72
2023/09/19 03:40:17;;;;;;;3.72;1.20;;;;;;;;;;5092441;28;20046;-71
2023/09/19 03:42:43;;;;;;;1.80;1.17;;;;;;;;;;5092650;28;20044;-72
2023/09/19 03:45:12;;;;;;;5.75;1.48;;;;;;;;;;5092121;28;20467;-68
2023/09/19 03:47:40;;;;;;;8.55;1.77;;;;;;;;;;5092255;28;20075;-70
2023/09/19 03:50:08;;;;;;;4.28;1.00;;;;;;;;;;5091814;28;20036;-68
2023/09/19 03:52:34;;;;;;;4.13;1.05;;;;;;;;;;5092562;28;20724;-71
2023/09/19 03:55:03;;;;;;;3.17;1.30;;;;;;;;;;5091774;28;20040;-69
2023/09/19 03:57:30;;;;;;;1.48;1.08;;;;;;;;;;5092181;28;20047;-69
2023/09/19 03:59:56;;;;;;;4.38;1.42;;;;;;;;;;5091690;28;20048;-69
2023/09/19 04:02:23;;;;;;;2.67;1.02;;;;;;;;;;5092355;28;20043;-69
2023/09/19 04:04:52;;;;;;;3.97;1.08;;;;;;;;;;5091943;28;20422;-69
2023/09/19 04:07:19;;;;;;;1.52;1.13;;;;;;;;;;5092077;28;20387;-66
2023/09/19 04:09:46;;;;;;;3.22;1.15;;;;;;;;;;5091637;28;20052;-69
2023/09/19 04:12:12;;;;;;;3.22;1.30;;;;;;;;;;5092092;28;20127;-67
2023/09/19 04:14:38;;;;;;;5.07;1.20;;;;;;;;;;5092443;28;20123;-67
2023/09/19 04:17:05;;;;;;;3.20;1.60;;;;;;;;;;5091702;28;20068;-68
2023/09/19 04:19:35;;;;;;;9.30;1.40;;;;;;;;;;5092031;28;20115;-69
2023/09/19 04:22:03;;;;;;;2.67;1.05;;;;;;;;;;5091124;28;20095;-66
2023/09/19 04:24:29;;;;;;;4.40;1.17;;;;;;;;;;5091924;28;20119;-69
2023/09/19 04:26:57;;;;;;;2.20;1.30;;;;;;;;;;5090628;28;20099;-70
2023/09/19 04:29:23;;;;;;;5.13;1.25;;;;;;;;;;5090540;28;20082;-69
2023/09/19 04:31:49;;;;;;;2.97;1.40;;;;;;;;;;5090868;28;20127;-69
2023/09/19 04:34:16;;;;;;;4.65;0.95;;;;;;;;;;5090674;28;20629;-69
2023/09/19 04:36:43;;;;;;;2.67;1.02;;;;;;;;;;5090961;28;20101;-70
2023/09/19 04:39:10;;;;;;;2.25;1.05;;;;;;;;;;5090685;28;20128;-69
2023/09/19 04:41:38;;;;;;;2.35;0.88;;;;;;;;;;5091011;28;20506;-70
2023/09/19 04:44:05;;;;;;;4.07;1.23;;;;;;;;;;5090517;28;20424;-70
2023/09/19 04:46:32;;;;;;;5.82;1.95;;;;;;;;;;5090328;28;20051;-69
2023/09/19 04:48:59;;;;;;;5.10;1.20;;;;;;;;;;5090112;28;20040;-68
2023/09/19 04:51:28;;;;;;;3.05;1.80;;;;;;;;;;5090306;28;20062;-69
2023/09/19 04:53:55;;;;;;;14.10;2.05;;;;;;;;;;5090010;28;20127;-69
2023/09/19 04:56:23;;;;;;;4.65;1.13;;;;;;;;;;5090252;28;20093;-68
2023/09/19 04:58:49;;;;;;;3.00;1.30;;;;;;;;;;5090154;28;20127;-69
2023/09/19 05:01:16;;;;;;;2.58;1.20;;;;;;;;;;5090533;28;20218;-68
2023/09/19 05:03:44;;;;;;;5.25;1.45;;;;;;;;;;5090357;28;20055;-69
2023/09/19 05:06:11;;;;;;;8.68;1.92;;;;;;;;;;5090008;28;20454;-69
2023/09/19 05:08:38;;;;;;;3.70;1.20;;;;;;;;;;5089694;28;20084;-70
2023/09/19 05:11:05;;;;;;;9.57;1.60;;;;;;;;;;5089446;28;20506;-69
2023/09/19 05:13:32;;;;;;;4.45;1.45;;;;;;;;;;5089634;28;20584;-69
2023/09/19 05:16:02;;;;;;;2.85;1.13;;;;;;;;;;5089268;28;20047;-69
2023/09/19 05:18:28;;;;;;;2.30;1.10;;;;;;;;;;5089556;28;20040;-69
2023/09/19 05:20:56;;;;;;;3.78;1.40;;;;;;;;;;5088915;28;20080;-69
2023/09/19 05:23:22;;;;;;;3.33;1.45;;;;;;;;;;5089744;28;20484;-69
2023/09/19 05:25:49;;;;;;;2.97;1.30;;;;;;;;;;5089519;28;20094;-69
2023/09/19 05:28:16;;;;;;;2.30;1.40;;;;;;;;;;5089188;28;20387;-69
2023/09/19 05:30:47;;;;;;;3.80;1.58;;;;;;;;;;5089034;28;20048;-69
2023/09/19 05:33:14;;;;;;;4.57;1.67;;;;;;;;;;5089021;28;20048;-69
2023/09/19 05:35:41;;;;;;;5.15;1.55;;;;;;;;;;5089395;28;20650;-69
2023/09/19 05:38:12;;;;;;;5.93;1.30;;;;;;;;;;5088935;28;20082;-69
2023/09/19 05:40:42;;;;;;;4.70;1.30;;;;;;;;;;5089422;28;20036;-69
2023/09/19 05:43:08;;;;;;;4.20;1.88;;;;;;;;;;5089289;28;20040;-69
2023/09/19 05:45:36;;;;;;;3.53;1.50;;;;;;;;;;5089574;28;20051;-68
2023/09/19 05:48:11;;;;;;;3.58;1.73;;;;;;;;;;5089693;28;20040;-69
2023/09/19 05:50:38;;;;;;;2.55;1.27;;;;;;;;;;5089547;28;20044;-69
2023/09/19 05:53:04;;;;;;;10.65;1.60;;;;;;;;;;5088597;28;20606;-70
2023/09/19 05:55:31;;;;;;;8.07;1.50;;;;;;;;;;5088866;28;20059;-69
2023/09/19 05:57:58;;;;;;;5.97;1.73;;;;;;;;;;5088540;28;20646;-69
2023/09/19 06:00:27;;;;;;;3.78;1.35;;;;;;;;;;5088446;28;20156;-69
2023/09/19 06:02:54;;;;;;;3.92;1.65;;;;;;;;;;5088465;28;20048;-69
2023/09/19 06:05:21;;;;;;;7.15;1.92;;;;;;;;;;5089113;28;20128;-69
2023/09/19 06:07:47;;;;;;;8.98;2.85;;;;;;;;;;5089055;28;20135;-69
2023/09/19 06:10:14;;;;;;;6.80;2.17;;;;;;;;;;5089277;28;20047;-69
2023/09/19 06:12:44;;;;;;;5.22;1.58;;;;;;;;;;5088767;28;20051;-69
2023/09/19 06:15:23;;;;;;;4.55;2.58;;;;;;;;;;5088537;28;20051;-69
2023/09/19 06:17:50;;;;;;;6.72;2.08;;;;;;;;;;5088497;28;20496;-70
2023/09/19 06:20:16;;;;;;;5.88;1.98;;;;;;;;;;5087783;28;20048;-69
2023/09/19 06:22:44;;;;;;;5.03;2.72;;;;;;;;;;5087570;28;20098;-71
2023/09/19 06:25:12;;;;;;;4.93;2.03;;;;;;;;;;5086709;28;20121;-70
2023/09/19 06:27:42;;;;;;;7.20;2.50;;;;;;;;;;5087091;28;20140;-70
2023/09/19 06:30:09;;;;;;;4.55;1.60;;;;;;;;;;5088970;28;20087;-68
2023/09/19 06:32:35;;;;;;;13.82;2.55;;;;;;;;;;5088025;28;20040;-70
2023/09/19 06:35:07;;;;;;;7.97;2.33;;;;;;;;;;5088171;28;20617;-69
2023/09/19 06:37:38;;;;;;;8.88;2.30;;;;;;;;;;5087981;28;20599;-68
2023/09/19 06:40:06;;;;;;;5.78;1.83;;;;;;;;;;5088382;28;20472;-69
2023/09/19 06:42:33;;;;;;;6.22;1.70;;;;;;;;;;5087853;28;20040;-69
2023/09/19 06:44:59;;;;;;;5.13;2.17;;;;;;;;;;5088082;28;20040;-68
2023/09/19 06:47:25;;;;;;;6.88;2.25;;;;;;;;;;5088029;28;20048;-69
2023/09/19 06:49:52;;;;;;;5.93;2.38;;;;;;;;;;5087953;28;20507;-69
2023/09/19 06:52:22;;;;;;;3.78;1.77;;;;;;;;;;5088047;28;20078;-69
2023/09/19 06:54:50;;;;;;;3.35;1.60;;;;;;;;;;5088659;28;20055;-70
2023/09/19 06:57:16;;;;;;;4.40;2.53;;;;;;;;;;5087974;28;20048;-69
2023/09/19 06:59:44;;;;;;;4.07;2.10;;;;;;;;;;5087806;28;20036;-68
2023/09/19 07:02:11;;;;;;;6.95;2.35;;;;;;;;;;5088349;28;20143;-68
2023/09/19 07:04:38;;;;;;;7.38;2.60;;;;;;;;;;5088166;28;20058;-68
2023/09/19 07:07:04;;;;;;;9.10;2.53;;;;;;;;;;5088082;28;20074;-68
2023/09/19 07:09:31;;;;;;;7.63;2.75;;;;;;;;;;5087729;28;20127;-69
2023/09/19 07:11:58;;;;;;;11.77;3.17;;;;;;;;;;5088286;28;20471;-69
2023/09/19 07:14:24;;;;;;;7.55;2.33;;;;;;;;;;5088275;28;20131;-71
2023/09/19 07:16:51;;;;;;;10.65;2.70;;;;;;;;;;5088561;28;20071;-69
2023/09/19 07:19:18;;;;;;;4.90;2.50;;;;;;;;;;5088076;28;20169;-71
2023/09/19 07:21:47;;;;;;;8.95;2.95;;;;;;;;;;5088106;28;20044;-68
2023/09/19 07:24:14;;;;;;;8.75;2.05;;;;;;;;;;5087426;28;20055;-69
2023/09/19 07:26:40;;;;;;;10.45;3.78;;;;;;;;;;5087736;28;20566;-69
2023/09/19 07:29:08;;;;;;;5.15;2.33;;;;;;;;;;5087413;28;20036;-68
2023/09/19 07:31:35;;;;;;;6.88;2.10;;;;;;;;;;5087750;28;20044;-68
2023/09/19 07:34:03;;;;;;;7.15;2.55;;;;;;;;;;5087494;28;20468;-67
2023/09/19 07:36:30;;;;;;;4.75;1.83;;;;;;;;;;5087553;28;20619;-68
2023/09/19 07:38:57;;;;;;;6.70;2.72;;;;;;;;;;5087736;28;20126;-68
2023/09/19 07:41:42;;;;;;;7.30;2.30;;;;;;;;;;5088044;28;20040;-70
2023/09/19 07:44:10;;;;;;;10.60;2.22;;;;;;;;;;5087764;28;20100;-68
2023/09/19 07:46:36;;;;;;;5.40;1.90;;;;;;;;;;5090073;28;20062;-67
2023/09/19 07:49:02;;;;;;;6.22;2.08;;;;;;;;;;5090959;28;20048;-68
2023/09/19 07:51:29;;;;;;;6.25;3.58;;;;;;;;;;5091177;28;20036;-69
2023/09/19 07:53:55;;;;;;;13.48;2.78;;;;;;;;;;5091021;28;20036;-70
2023/09/19 07:56:22;;;;;;;14.48;4.15;;;;;;;;;;5091380;28;20040;-70
2023/09/19 07:58:49;;;;;;;8.18;3.00;;;;;;;;;;5091204;28;20048;-72
2023/09/19 08:01:16;;;;;;;6.18;2.65;;;;;;;;;;5091602;28;20495;-71
2023/09/19 08:03:43;;;;;;;8.70;2.45;;;;;;;;;;5091409;28;20365;-70
2023/09/19 08:06:10;;;;;;;10.90;2.97;;;;;;;;;;5091348;28;20526;-70
2023/09/19 08:08:39;;;;;;;7.57;2.50;;;;;;;;;;5090798;28;20482;-70
2023/09/19 08:11:12;;;;;;;7.18;2.08;;;;;;;;;;5090612;28;20126;-70
2023/09/19 08:13:43;;;;;;;5.25;2.30;;;;;;;;;;5090737;28;20044;-71
2023/09/19 08:16:10;;;;;;;13.10;2.97;;;;;;;;;;5090718;28;20081;-71
2023/09/19 08:18:40;;;;;;;10.95;3.75;;;;;;;;;;5090575;28;20043;-70
2023/09/19 08:21:11;;;;;;;4.80;2.63;;;;;;;;;;5090472;28;20040;-67
2023/09/19 08:23:38;;;;;;;8.98;3.63;;;;;;;;;;5091039;28;20130;-69
2023/09/19 08:26:08;;;;;;;6.80;2.58;;;;;;;;;;5090733;28;20055;-67
2023/09/19 08:28:35;;;;;;;10.32;3.72;;;;;;;;;;5090420;28;20036;-73
2023/09/19 08:31:05;;;;;;;12.20;2.53;;;;;;;;;;5090174;28;20081;-69
2023/09/19 08:33:32;;;;;;;9.27;2.78;;;;;;;;;;5090748;28;20040;-71
2023/09/19 08:35:59;;;;;;;9.50;3.40;;;;;;;;;;5090301;28;20044;-73
2023/09/19 08:38:29;;;;;;;4.88;2.10;;;;;;;;;;5090568;28;20335;-67
2023/09/19 08:41:01;;;;;;;6.90;2.80;;;;;;;;;;5090800;28;20108;-77
2023/09/19 08:43:28;;;;;;;6.40;2.33;;;;;;;;;;5090592;28;20101;-68
2023/09/19 08:46:03;;;;;;;7.50;2.38;;;;;;;;;;5089138;28;20093;-68
2023/09/19 08:48:29;;;;;;;7.38;2.75;;;;;;;;;;5089662;28;20051;-69
2023/09/19 08:50:58;;;;;;;8.85;3.40;;;;;;;;;;5090232;28;20543;-68
2023/09/19 08:53:27;;;;;;;14.30;3.05;;;;;;;;;;5090014;28;20490;-68
2023/09/19 08:55:56;;;;;;;8.00;3.20;;;;;;;;;;5089339;28;20128;-67
2023/09/19 08:58:27;;;;;;;6.65;2.88;;;;;;;;;;5089420;28;20093;-68
2023/09/19 09:00:55;;;;;;;7.50;2.88;;;;;;;;;;5090180;28;20071;-68
2023/09/19 09:03:22;;;;;;;9.82;2.65;;;;;;;;;;5089617;28;20044;-68
2023/09/19 09:05:50;;;;;;;6.85;2.80;;;;;;;;;;5090334;28;20075;-69
2023/09/19 09:08:20;;;;;;;6.50;2.90;;;;;;;;;;5089711;28;20046;-70
2023/09/19 09:10:46;;;;;;;7.43;2.38;;;;;;;;;;5089944;28;20042;-68
2023/09/19 09:13:14;;;;;;;8.80;2.80;;;;;;;;;;5089152;28;20048;-67
2023/09/19 09:15:40;;;;;;;6.28;2.17;;;;;;;;;;5089366;28;20086;-68
2023/09/19 09:18:07;;;;;;;13.05;2.63;;;;;;;;;;5087780;28;20048;-68
2023/09/19 09:20:33;;;;;;;11.73;3.65;;;;;;;;;;5089473;28;20040;-67
2023/09/19 09:23:03;;;;;;;8.63;2.55;;;;;;;;;;5089437;28;20391;-68
2023/09/19 09:25:56;;;;;;;6.13;2.38;;;;;;;;;;5089767;28;20101;-68
2023/09/19 09:28:24;;;;;;;10.35;2.78;;;;;;;;;;5089790;28;20044;-67
2023/09/19 09:30:50;;;;;;;11.02;2.47;;;;;;;;;;5089720;28;20048;-67
2023/09/19 09:33:17;;;;;;;13.00;2.45;;;;;;;;;;5089343;28;20048;-67
2023/09/19 09:36:03;;;;;;;5.50;2.33;;;;;;;;;;5089026;28;20638;-68
2023/09/19 09:38:43;;;;;;;7.40;2.17;;;;;;;;;;5088865;28;20456;-68
2023/09/19 09:41:11;;;;;;;7.13;2.42;;;;;;;;;;5088731;28;20431;-68
2023/09/19 09:43:40;;;;;;;6.40;2.45;;;;;;;;;;5088498;28;20400;-68
2023/09/19 09:51:59;;;;;;;6.20;2.00;;;;;;;;;;5088541;28;20053;-68
2023/09/19 09:54:33;;;;;;;7.90;2.05;;;;;;;;;;5088763;28;20046;-68
2023/09/19 09:57:17;;;;;;;9.40;2.47;;;;;;;;;;5088886;28;20070;-68
2023/09/19 09:59:49;;;;;;;10.60;2.17;;;;;;;;;;5088467;28;20370;-69
2023/09/19 10:02:28;;;;;;;8.40;2.30;;;;;;;;;;5088531;28;20051;-68
2023/09/19 10:04:59;;;;;;;7.82;2.50;;;;;;;;;;5088246;28;20062;-68
2023/09/19 10:07:35;;;;;;;7.65;2.50;;;;;;;;;;5087086;28;20122;-69
2023/09/19 10:10:53;;;;;;;11.98;2.60;;;;;;;;;;5088860;28;20040;-67
2023/09/19 10:12:56;;;;;;;6.60;2.15;;;;;;;;;;5082690;28;20093;-69
2023/09/19 10:15:26;;;;;;;10.18;3.10;;;;;;;;;;5088723;28;20044;-70
2023/09/19 10:17:56;;;;;;;7.13;2.42;;;;;;;;;;5087339;28;20087;-66
2023/09/19 10:20:35;;;;;;;8.88;2.40;;;;;;;;;;5088533;28;20456;-66
2023/09/19 10:23:12;;;;;;;9.10;2.85;;;;;;;;;;5088306;28;20051;-66
2023/09/19 10:25:42;;;;;;;6.68;2.28;;;;;;;;;;5088230;28;20381;-67
2023/09/19 10:28:13;;;;;;;11.25;2.88;;;;;;;;;;5088129;28;20126;-70
2023/09/19 10:30:44;;;;;;;8.45;2.83;;;;;;;;;;5087739;28;20540;-67
2023/09/19 10:33:13;;;;;;;10.77;2.92;;;;;;;;;;5087839;28;20092;-67
2023/09/19 10:35:42;;;;;;;14.77;2.17;;;;;;;;;;5088075;28;20127;-68
2023/09/19 10:38:10;;;;;;;9.95;2.67;;;;;;;;;;5087855;28;20040;-69
2023/09/19 10:40:40;;;;;;;10.70;2.65;;;;;;;;;;5088109;28;20432;-68
2023/09/19 10:43:10;;;;;;;6.65;2.28;;;;;;;;;;5086345;28;20047;-68
2023/09/19 10:45:39;;;;;;;8.30;2.05;;;;;;;;;;5087458;28;20054;-68
2023/09/19 10:48:07;;;;;;;7.38;2.53;;;;;;;;;;5087699;28;20438;-68
2023/09/19 10:50:36;;;;;;;9.30;2.53;;;;;;;;;;5087696;28;20097;-68
2023/09/19 10:53:08;;;;;;;8.77;1.75;;;;;;;;;;5087694;28;20126;-69
2023/09/19 10:55:35;;;;;;;7.63;2.38;;;;;;;;;;5087069;28;20037;-66
2023/09/19 10:58:09;;;;;;;9.48;2.35;;;;;;;;;;5087648;28;20131;-66
2023/09/19 11:00:53;;;;;;;8.38;2.13;;;;;;;;;;5087869;28;20076;-69
2023/09/19 11:03:23;;;;;;;12.40;2.38;;;;;;;;;;5084941;28;20044;-68
2023/09/19 11:06:05;;;;;;;7.90;2.30;;;;;;;;;;5078289;28;20052;-68
2023/09/19 11:08:51;;;;;;;6.32;1.85;;;;;;;;;;5067574;28;20063;-70
2023/09/19 11:11:36;;;;;;;13.23;1.85;;;;;;;;;;5084160;28;20068;-67
2023/09/19 11:14:25;;;;;;;9.25;1.73;;;;;;;;;;5072279;28;20111;-68
2023/09/19 11:17:10;;;;;;;7.23;1.90;;;;;;;;;;5073343;28;20461;-69
2023/09/19 11:20:15;;;;;;;10.55;2.55;;;;;;;;;;5087561;28;20048;-67
2023/09/19 11:23:05;;;;;;;7.15;2.35;;;;;;;;;;5063329;28;20098;-67
2023/09/19 11:25:41;;;;;;;6.45;1.60;;;;;;;;;;5071527;28;20050;-69
2023/09/19 11:30:36;;;;;;;9.45;2.50;;;;;;;;;;5079688;28;20129;-69
2023/09/19 11:33:28;;;;;;;4.55;1.50;;;;;;;;;;5081434;28;20048;-68
2023/09/19 11:36:03;;;;;;;12.50;2.05;;;;;;;;;;5070950;28;20530;-68
2023/09/19 11:38:41;;;;;;;8.30;2.08;;;;;;;;;;5087800;28;20048;-67
2023/09/19 11:41:27;;;;;;;7.68;1.67;;;;;;;;;;5091600;28;20047;-68
2023/09/19 11:44:16;;;;;;;6.25;1.65;;;;;;;;;;5087304;28;20060;-66
2023/09/19 11:46:54;;;;;;;5.45;1.95;;;;;;;;;;5088529;28;20040;-67
2023/09/19 11:49:32;;;;;;;13.88;2.22;;;;;;;;;;5089710;28;20040;-66
2023/09/19 11:52:05;;;;;;;9.45;1.98;;;;;;;;;;5090811;28;20123;-67
2023/09/19 11:54:32;;;;;;;13.48;1.98;;;;;;;;;;5090760;28;20524;-68
2023/09/19 11:56:59;;;;;;;7.40;1.92;;;;;;;;;;5090587;28;20039;-70
2023/09/19 11:59:29;;;;;;;8.55;2.10;;;;;;;;;;5089084;28;20348;-69
2023/09/19 12:02:01;;;;;;;4.30;1.73;;;;;;;;;;5089070;28;20048;-67
2023/09/19 12:04:37;;;;;;;5.13;1.98;;;;;;;;;;5089298;28;20044;-70
2023/09/19 12:07:10;;;;;;;4.65;1.27;;;;;;;;;;5088321;28;20044;-74
2023/09/19 12:09:43;;;;;;;6.70;1.00;;;;;;;;;;5083819;28;20050;-70
2023/09/19 12:12:12;;;;;;;8.48;1.63;;;;;;;;;;5075450;28;20100;-73
2023/09/19 12:14:41;;;;;;;5.35;1.15;;;;;;;;;;5074826;28;20130;-66
2023/09/19 12:17:07;;;;;;;7.55;2.20;;;;;;;;;;5076314;28;20182;-66
2023/09/19 12:19:34;;;;;;;7.50;1.92;;;;;;;;;;5087827;28;20047;-70
2023/09/19 12:22:05;;;;;;;8.77;1.35;;;;;;;;;;5089477;28;20101;-63
2023/09/19 12:24:32;;;;;;;6.05;2.03;;;;;;;;;;5088238;28;20534;-66
2023/09/19 12:27:07;;;;;;;6.00;1.40;;;;;;;;;;5090131;28;20046;-71
2023/09/19 12:29:55;;;;;;;4.30;1.70;;;;;;;;;;5089747;28;20520;-64
2023/09/19 12:32:34;;;;;;;5.18;1.27;;;;;;;;;;5085562;28;20038;-65
2023/09/19 12:35:07;;;;;;;8.55;1.75;;;;;;;;;;5081555;28;20052;-66
2023/09/19 12:37:36;;;;;;;6.38;1.70;;;;;;;;;;5087111;28;20443;-66
2023/09/19 12:40:22;;;;;;;6.38;1.60;;;;;;;;;;5080379;28;20067;-63
2023/09/19 12:42:49;;;;;;;5.53;1.65;;;;;;;;;;5068516;28;20083;-64
2023/09/19 12:45:17;;;;;;;6.20;1.60;;;;;;;;;;5089301;28;20120;-64
2023/09/19 12:48:02;;;;;;;2.58;1.05;;;;;;;;;;5088225;28;20040;-65
2023/09/19 12:50:29;;;;;;;5.20;1.35;;;;;;;;;;5089995;28;20048;-65
2023/09/19 12:52:59;;;;;;;3.65;1.33;;;;;;;;;;5087386;28;20040;-66
2023/09/19 12:55:26;;;;;;;3.75;1.25;;;;;;;;;;5088831;28;20062;-62
2023/09/19 12:58:01;;;;;;;7.18;1.83;;;;;;;;;;5084392;28;20472;-66
2023/09/19 13:00:38;;;;;;;4.90;1.55;;;;;;;;;;5085794;28;20580;-66
2023/09/19 13:03:15;;;;;;;6.93;1.98;;;;;;;;;;5086670;28;20040;-69
2023/09/19 13:05:56;;;;;;;5.68;1.08;;;;;;;;;;5088744;28;20459;-65
2023/09/19 13:08:32;;;;;;;3.95;1.20;;;;;;;;;;5079904;28;20044;-67
2023/09/19 13:11:01;;;;;;;4.43;1.35;;;;;;;;;;5080497;28;20090;-66
2023/09/19 13:13:28;;;;;;;3.92;1.33;;;;;;;;;;5082462;28;20090;-67
2023/09/19 13:15:57;;;;;;;7.80;1.63;;;;;;;;;;5089060;28;20075;-68
2023/09/19 13:18:26;;;;;;;5.70;1.30;;;;;;;;;;5088557;28;20123;-68
2023/09/19 13:21:10;;;;;;;4.95;1.77;;;;;;;;;;5087223;28;20130;-69
2023/09/19 13:23:37;;;;;;;7.55;1.80;;;;;;;;;;5082750;28;20032;-68
2023/09/19 13:26:05;;;;;;;8.63;1.70;;;;;;;;;;5084417;28;20059;-69
2023/09/19 13:28:33;;;;;;;3.30;1.33;;;;;;;;;;5086853;28;20046;-68
2023/09/19 13:31:01;;;;;;;5.53;1.30;;;;;;;;;;5088626;28;20040;-67
2023/09/19 13:33:28;;;;;;;6.32;1.15;;;;;;;;;;5083996;28;20059;-67
2023/09/19 13:35:56;;;;;;;9.35;1.67;;;;;;;;;;5089060;28;20062;-68
2023/09/19 13:38:23;;;;;;;4.93;1.65;;;;;;;;;;5087240;28;20086;-67
2023/09/19 13:40:52;;;;;;;8.52;1.88;;;;;;;;;;5089539;28;20048;-69
2023/09/19 13:43:19;;;;;;;6.45;1.73;;;;;;;;;;5088286;28;20048;-73
2023/09/19 13:45:45;;;;;;;4.78;1.38;;;;;;;;;;5089207;28;20400;-69
2023/09/19 13:48:11;;;;;;;8.90;1.42;;;;;;;;;;5087244;28;20196;-67
2023/09/19 13:50:42;;;;;;;3.50;1.38;;;;;;;;;;5088739;28;20385;-67
2023/09/19 13:53:09;;;;;;;3.30;1.30;;;;;;;;;;5085241;28;20066;-71
2023/09/19 13:55:37;;;;;;;5.85;1.45;;;;;;;;;;5086368;28;20054;-66
2023/09/19 13:58:06;;;;;;;8.30;2.70;;;;;;;;;;5087061;28;20502;-65
2023/09/19 14:00:34;;;;;;;6.35;1.15;;;;;;;;;;5088850;28;20050;-62
2023/09/19 14:03:01;;;;;;;4.43;1.60;;;;;;;;;;5085135;28;20128;-68
2023/09/19 14:05:29;;;;;;;4.60;1.70;;;;;;;;;;5081389;28;20097;-71
2023/09/19 14:07:57;;;;;;;5.07;1.30;;;;;;;;;;5087553;28;20354;-65
2023/09/19 14:10:24;;;;;;;4.57;1.50;;;;;;;;;;5084495;28;20141;-64
2023/09/19 14:12:50;;;;;;;3.22;1.10;;;;;;;;;;5086692;28;20040;-65
2023/09/19 14:15:17;;;;;;;5.97;1.52;;;;;;;;;;5084631;28;20071;-64
2023/09/19 14:17:45;;;;;;;4.25;1.52;;;;;;;;;;5086670;28;20126;-67
2023/09/19 14:20:12;;;;;;;4.88;1.58;;;;;;;;;;5087282;28;20044;-65
2023/09/19 14:22:38;;;;;;;3.75;1.67;;;;;;;;;;5088677;28;20126;-64
2023/09/19 14:25:05;;;;;;;2.45;1.20;;;;;;;;;;5084621;28;20389;-67
2023/09/19 14:27:32;;;;;;;6.30;1.52;;;;;;;;;;5080371;28;20106;-66
2023/09/19 14:29:58;;;;;;;3.83;1.55;;;;;;;;;;5087617;28;20064;-66
2023/09/19 14:32:24;;;;;;;12.52;2.03;;;;;;;;;;5085116;28;20051;-64
2023/09/19 14:34:52;;;;;;;5.93;1.63;;;;;;;;;;5085199;28;20036;-63
2023/09/19 14:37:21;;;;;;;4.40;2.25;;;;;;;;;;5085162;28;20105;-64
2023/09/19 14:39:47;;;;;;;12.25;1.60;;;;;;;;;;5086389;28;20097;-64
2023/09/19 14:42:17;;;;;;;6.00;1.52;;;;;;;;;;5084577;28;20040;-67
2023/09/19 14:44:44;;;;;;;6.82;1.52;;;;;;;;;;5085561;28;20322;-67
2023/09/19 14:47:13;;;;;;;4.05;1.48;;;;;;;;;;5085475;28;20112;-64
2023/09/19 14:49:40;;;;;;;4.15;1.50;;;;;;;;;;5087091;28;20122;-65
2023/09/19 14:52:07;;;;;;;6.80;1.75;;;;;;;;;;5087769;28;20036;-66
2023/09/19 14:54:34;;;;;;;6.57;2.17;;;;;;;;;;5087215;28;20082;-64
2023/09/19 14:57:04;;;;;;;4.38;1.25;;;;;;;;;;5092692;28;20066;-64
2023/09/19 14:59:31;;;;;;;9.50;2.53;;;;;;;;;;5091197;28;20048;-65
2023/09/19 15:01:58;;;;;;;6.10;1.77;;;;;;;;;;5092105;28;20464;-64
2023/09/19 15:04:26;;;;;;;4.72;1.55;;;;;;;;;;5090556;28;20071;-64